Timeline UpdatesTrip UpdatesNews PostsPvt PostsTravel TipsAdmin PostsConv PostsFollowed PostsChat RequestsBlog PostsPNR Posts

Disclaimer
Search
 
 
Wed Sep 3, 2014 12:30:51 ISTHomeTrainsΣChainsAtlasPNRForumGalleryNewsFAQTripsMembersLoginFeedback
No Recent News for this Train
Other Trains in the News **new
Latest...
.
Mon Sep 01, 2014 (10:02PM)
⇐ Return Journey: Train# 14674

14673/Shaheed Express

Time-Table HAS CHANGED. update tt
Sep 01 (10:02PM)
Change Departure Station:
Change Arrival Station:
Post a Train Travel TipPost a Train Travel Tip **new
Post a Comment/Question/Picture/VideoPost a Comment/Question/Picture/Video
Pantry/Catering
✕ NO Pantry Car
✓ Catering Avbl
Loco/Rake Reversals
SPJ/Samastipur Junction (9);
RSA - Rake Sharing
14649/50 Saryu Yamuna Express
Rake/Coach Composition
SLR-2;UR-8; SL-7; 3A-1; 2A/3A=1-Coach arrangement doesnt follow an order-UR coaches come between SL coaches.; 2A+3A Compositie information by Er Ankit Shotra Bhagat
Loco
JYG-DLI: TKD / LKO WDM-3A / TKD WDP-4 DLI-ASR: GZB WAP-4
News    PNR    Forum    Time-Table    Availability    Fare Chart    Map    Arr/Dep History    Trips    Gallery    ΣChains    X/O    Timeline    
Travel Time: 30h 0m    35 halts    Distance: 1207 km    Avg Speed: 40 km/hr
Type: Mail/Express
Zone: NR/Northern
Departs @ 06:30
Platform# 3
 M WT S
Jaynagar/JYG 
Arrives @ 12:30 +1 night
Platform# 11
S T TF 
Old Delhi Junction/DLI 

35 halts. 203 intermediate Stations between Jaynagar and Old Delhi Junction

Show ALL intermediate Stations  Show Old Time-Table

#CodeStation NameX/OArrivesAvgDepartsAvgHaltPFDay#KmSpeedElevZoneAddress
1JYG»Jaynagar (3)»  -06:30-310.05668mECRDistt: Madhubani, Bihar
2KJIKhajauli  06:44 06:43-06:45-1 2m--112.05670mECRMadhubani, Bihar
3RJARajanagar  06:56 06:55-06:57-1 2m--121.33565mECRRajnagar Distt: Madhubani, Bihar
4MBIMadhubani (3)  07:14-07:15-1m--131.24562mECRMadhubani, Bihar
5PDWPandaulX  07:24 07:27-07:25 07:28-1m--140.22559mECRMadhubani, Bihar
6SKISakri Junction (5)X  07:47-07:52-5m--148.15055mECRMadhubani, Bihar
7TRSTarsarai  08:00-08:01-1m--154.74054mECRDarbhanga, Bihar
8KKHTKakarghatti  08:10 08:11-08:11 08:12-1m--161.31254mECRDarbhanga, Bihar
9DBGDarbhanga Junction (5)X  08:45-09:13-28m2167.74354mECRDarbhanga, Bihar
10LSILaheria Sarai (1)X  09:20-09:25-5m1172.76352mECRDarbhanga, Bihar
11HYTHaiaghat  09:36 09:35-09:37 09:36-1m--183.11951mECRDarbhanga, Bihar
12SPJSamastipur Junction (9)10:45-11:05-20m--1105.17055mECRSamastipur, Bihar
13MFPMuzaffarpur Junction (6)  11:55 11:50-12:05 11:55-10 5m31157.26357mECRMuzaffarpur, Bihar
14HJPHajipur Junction (3)X  12:59 12:46-13:00 12:47-1m--1211.13355mECR06224-272230, Bihar
15SEESonpur Junction (4)X  13:10 12:57-13:20 13:02-10 5m--1216.63956mECRSaran, Bihar
16CPRChhapra Junction (6)  14:25-14:40 14:35-15 10m--1270.66758mNERDistt: Saran, Bihar
17SVSiwan Junction (4)X  15:30-15:35-5m--1331.97170mNERSiwan, Bihar
18MWMairwa (2)  15:54 15:53-15:55-1 2m--1353.13873mNERMairwa, Bihar
19BHTRBhatpar Rani (2)X  16:19 16:18-16:20-1 2m--1367.75173mNERDeoria, Uttar Pradesh
20BTTBhatni Junction (5)X  16:40 16:35-16:45 16:40-5m--1380.64373mNERDeoria, Uttar Pradesh
21DEOSDeoria Sadar (3)  17:20 17:09-17:21 17:10-1m--1401.32879mNERDeoria- 274001, Uttar Pradesh
22GKPGorakhpur Junction (10)  18:55-19:20-25m51450.55084mNERGorakhpur 273001, Uttar Pradesh
23KLDKhalilabad (3)X  20:02 20:01-20:03 20:02-1m11484.44786mNERKhalilabad- 272175, Uttar Pradesh
24BSTBasti (4)  20:35 20:40-20:40 20:45-5m11513.97790mNERBasti 272001, Uttar Pradesh
25BVBabhnan (2)  21:04 21:09-21:05 21:10-1m11544.766101mNERDistrict- Basti, Uttar Pradesh
26MURMankapur Junction (5)X  21:38 21:37-21:40 21:39-2m11574.564104mNERDistrict Gonda, Uttar Pradesh
27GDGonda Junction (3)X  22:15 22:05-22:20 22:10-5m11602.344110mNERGonda 271001, Uttar Pradesh
28BBKBarabanki Junction (4)X  00:11-00:13-2m22691.733122mNRPin-225001, Uttar Pradesh
29LKOLucknow Charbagh (9)X  01:05-01:15-10m62720.267123mNR226004, Uttar Pradesh
30SPNShahjahanpur Junction (3)XO  03:43-03:45 03:48-2 5m--2885.126156mNRShahjahanpur, Uttar Pradesh
31BEBareilly Junction (4)  05:30 06:32-05:35 06:37-5m22955.649174mNRBareilly, Uttar Pradesh
32RMURampur Junction (3)X  06:31 07:54-06:32 07:55-1m--21018.623190mNRRampur, Uttar Pradesh
33MBMoradabad Junction (7)  07:20 09:05-07:30 09:15-10m--21045.957201mNRMoradabad, Uttar Pradesh
34AMROAmroha (3)  08:00 09:47-08:01 09:48-1m221076.475217mNRAmroha, Uttar Pradesh
35HPUHapur Junction (4)O  10:05 10:47-10:10 10:52-5m321149.942214mNRHapur Jn., Uttar Pradesh
36GZBGhaziabad Junction (6)XO  11:07 11:45-11:09 11:47-2m321186.628217mNRGhaziabad, Uttar Pradesh
37DLI•Old Delhi Junction (16)•11:55 12:30-12:45 13:50-50 80m1121206.712219mNRNear Chandni Chowk Metro Station, Delhi NCT
38SZMDelhi Sabzi Mandi (2)  12:59 14:05-13:00 14:06-1m--21209.676220mNRGulabi Bagh, Delhi NCT
39SNPSonipat (3)XO  13:35 14:38-13:36 14:39-1m221250.033225mNRSonipat, Haryana
40PNPPanipat Junction (5)  14:20 16:00-14:25 16:02-5 2m321295.176235mNRPanipat, Haryana
41KUNKarnal (3)  14:54 16:29-14:55 16:30-1m--21329.666253mNRKarnal, Haryana
42KKDEKurukshetra Junction (3)  15:26 17:00-15:28 17:02-2m121362.656260mNRKurukshetra, Haryana
43UMBAmbala Cantt. Junction (7)X  16:20 17:47-16:30 17:55-10 8m721404.735278mNRAmbala 133001, Haryana
44UBCAmbala City (3)X  16:43 18:08-16:44 18:09-1m321412.377273mNRNH-1, Haryana
45RPJRajpura Junction (3)X  17:00 18:25-17:01 18:26-1m121432.871272mNRNH-1, Punjab
46SIRSirhind Junction (3)X  17:45 18:47-17:47 18:49-2m121457.673271mNRSirhind, Punjab
47GVGMandi Gobindgarh (2)X  17:57 18:57-17:58 18:58-1m221467.454268mNRMandi Gobindgarh, Punjab
48KNNKhanna (3)X  18:07 19:07-18:08 19:08-1m121475.542269mNRNH 1, Punjab
49DOADoraha (2)  18:36 19:37-18:37 19:38-1m121495.952261mNRDoraha, Punjab
50LDHLudhiana Junction (7)X  19:30 20:04-19:40 20:10-10 6m321518.456246mNRLudhiana 141001, Punjab
51PHRPhillaur Junction (3)  20:04 20:24-20:05 20:25-1m221531.471246mNRPhillaur, Punjab
52PGWPhagwara Junction (3)X  20:25 20:44-20:26 20:45-1m221554.061245mNRPhagwara, Punjab
53JRCJalandhar Cantt. Junction (3)X  20:40 21:01-20:42 21:03-2m121570.324239mNRNear Rama Mandi, Punjab
54JUCJalandhar City Junction (5)  20:45 21:15-20:55 21:20-10 5m121575.264239mNRJalandhar 144001, Punjab
55BEASBeas Junction (2)XO  21:44 21:54-21:45 21:55-1m121611.227238mNRBeas, Punjab
56ASRAmritsar Junction (5)  23:25 23:30--321654.3-233mNRAmritsar 143002, Punjab
Scroll to Top
Scroll to Bottom